sensor_id;sensor_type;location;lat;lon;timestamp;pressure;altitude;pressure_sealevel;temperature;humidity
44103;BME280;29769;42.178;24.742;2024-02-23T00:00:08;99575.50;;;5.28;100.00
44103;BME280;29769;42.178;24.742;2024-02-23T00:02:56;99589.41;;;5.27;100.00
44103;BME280;29769;42.178;24.742;2024-02-23T00:05:42;99585.84;;;5.10;100.00
44103;BME280;29769;42.178;24.742;2024-02-23T00:08:27;99581.44;;;5.00;100.00
44103;BME280;29769;42.178;24.742;2024-02-23T00:11:12;99571.94;;;5.04;100.00
44103;BME280;29769;42.178;24.742;2024-02-23T00:13:57;99597.13;;;5.06;100.00
44103;BME280;29769;42.178;24.742;2024-02-23T00:16:42;99585.84;;;5.07;100.00
44103;BME280;29769;42.178;24.742;2024-02-23T00:19:27;99578.88;;;5.03;100.00
44103;BME280;29769;42.178;24.742;2024-02-23T00:22:12;99574.47;;;4.91;100.00
44103;BME280;29769;42.178;24.742;2024-02-23T00:24:57;99580.47;;;4.77;100.00
44103;BME280;29769;42.178;24.742;2024-02-23T00:27:42;99571.75;;;4.75;100.00
44103;BME280;29769;42.178;24.742;2024-02-23T00:30:28;99549.97;;;4.62;100.00
44103;BME280;29769;42.178;24.742;2024-02-23T00:33:14;99567.41;;;4.74;100.00
44103;BME280;29769;42.178;24.742;2024-02-23T00:35:59;99564.69;;;4.53;100.00
44103;BME280;29769;42.178;24.742;2024-02-23T00:38:45;99581.00;;;4.30;100.00
44103;BME280;29769;42.178;24.742;2024-02-23T00:41:29;99557.56;;;4.29;100.00
44103;BME280;29769;42.178;24.742;2024-02-23T00:44:14;99567.63;;;3.91;100.00
44103;BME280;29769;42.178;24.742;2024-02-23T00:46:59;99572.06;;;3.98;100.00
44103;BME280;29769;42.178;24.742;2024-02-23T00:49:46;99568.50;;;3.90;100.00
44103;BME280;29769;42.178;24.742;2024-02-23T00:52:31;99561.63;;;3.95;100.00
44103;BME280;29769;42.178;24.742;2024-02-23T00:55:16;99564.00;;;3.74;100.00
44103;BME280;29769;42.178;24.742;2024-02-23T00:58:01;99569.97;;;3.64;100.00
44103;BME280;29769;42.178;24.742;2024-02-23T01:00:47;99559.50;;;3.59;100.00
44103;BME280;29769;42.178;24.742;2024-02-23T01:03:32;99550.81;;;3.55;100.00
44103;BME280;29769;42.178;24.742;2024-02-23T01:06:17;99554.22;;;3.50;100.00
44103;BME280;29769;42.178;24.742;2024-02-23T01:09:03;99566.22;;;3.37;100.00
44103;BME280;29769;42.178;24.742;2024-02-23T01:11:49;99551.41;;;3.30;100.00
44103;BME280;29769;42.178;24.742;2024-02-23T01:14:34;99537.56;;;3.31;100.00
44103;BME280;29769;42.178;24.742;2024-02-23T01:17:19;99535.75;;;3.26;100.00
44103;BME280;29769;42.178;24.742;2024-02-23T01:20:04;99544.47;;;3.29;100.00
44103;BME280;29769;42.178;24.742;2024-02-23T01:22:49;99541.81;;;3.25;100.00
44103;BME280;29769;42.178;24.742;2024-02-23T01:25:34;99538.16;;;3.09;100.00
44103;BME280;29769;42.178;24.742;2024-02-23T01:28:19;99537.31;;;3.11;100.00
44103;BME280;29769;42.178;24.742;2024-02-23T01:31:04;99535.50;;;3.04;100.00
44103;BME280;29769;42.178;24.742;2024-02-23T01:33:52;99538.69;;;2.82;100.00
44103;BME280;29769;42.178;24.742;2024-02-23T01:36:37;99538.81;;;2.93;100.00
44103;BME280;29769;42.178;24.742;2024-02-23T01:39:23;99521.09;;;2.61;100.00
44103;BME280;29769;42.178;24.742;2024-02-23T01:42:08;99542.94;;;2.76;100.00
44103;BME280;29769;42.178;24.742;2024-02-23T01:44:53;99488.03;;;2.48;100.00
44103;BME280;29769;42.178;24.742;2024-02-23T01:47:41;99531.59;;;2.67;100.00
44103;BME280;29769;42.178;24.742;2024-02-23T01:50:26;99530.75;;;2.72;100.00
44103;BME280;29769;42.178;24.742;2024-02-23T01:53:12;99535.09;;;2.71;100.00
44103;BME280;29769;42.178;24.742;2024-02-23T01:55:57;99505.53;;;2.61;100.00
44103;BME280;29769;42.178;24.742;2024-02-23T01:58:44;99528.22;;;2.78;100.00
44103;BME280;29769;42.178;24.742;2024-02-23T02:01:30;99523.78;;;2.69;100.00
44103;BME280;29769;42.178;24.742;2024-02-23T02:04:15;99523.03;;;2.78;100.00
44103;BME280;29769;42.178;24.742;2024-02-23T02:07:00;99523.09;;;2.81;100.00
44103;BME280;29769;42.178;24.742;2024-02-23T02:09:45;99506.59;;;2.79;100.00
44103;BME280;29769;42.178;24.742;2024-02-23T02:12:30;99524.88;;;2.85;100.00
44103;BME280;29769;42.178;24.742;2024-02-23T02:15:15;99519.69;;;2.85;100.00
44103;BME280;29769;42.178;24.742;2024-02-23T02:18:00;99519.44;;;2.66;100.00
44103;BME280;29769;42.178;24.742;2024-02-23T02:20:54;99529.72;;;2.60;100.00
44103;BME280;29769;42.178;24.742;2024-02-23T02:23:40;99528.78;;;2.54;100.00
44103;BME280;29769;42.178;24.742;2024-02-23T02:26:25;99531.31;;;2.49;100.00
44103;BME280;29769;42.178;24.742;2024-02-23T02:29:10;99524.41;;;2.50;100.00
44103;BME280;29769;42.178;24.742;2024-02-23T02:31:55;99530.50;;;2.55;100.00
44103;BME280;29769;42.178;24.742;2024-02-23T02:34:40;99528.03;;;2.62;100.00
44103;BME280;29769;42.178;24.742;2024-02-23T02:37:25;99527.16;;;2.63;100.00
44103;BME280;29769;42.178;24.742;2024-02-23T02:40:10;99521.63;;;2.38;100.00
44103;BME280;29769;42.178;24.742;2024-02-23T02:42:55;99511.19;;;2.35;100.00
44103;BME280;29769;42.178;24.742;2024-02-23T02:45:40;99522.66;;;2.49;100.00
44103;BME280;29769;42.178;24.742;2024-02-23T02:48:25;99531.19;;;2.42;100.00
44103;BME280;29769;42.178;24.742;2024-02-23T02:51:10;99516.41;;;2.35;100.00
44103;BME280;29769;42.178;24.742;2024-02-23T02:53:55;99531.91;;;2.30;100.00
44103;BME280;29769;42.178;24.742;2024-02-23T02:56:43;99535.31;;;2.26;100.00
44103;BME280;29769;42.178;24.742;2024-02-23T02:59:28;99535.44;;;2.37;100.00
44103;BME280;29769;42.178;24.742;2024-02-23T03:02:13;99534.53;;;2.33;100.00
44103;BME280;29769;42.178;24.742;2024-02-23T03:04:58;99536.22;;;2.30;100.00
44103;BME280;29769;42.178;24.742;2024-02-23T03:07:43;99538.69;;;2.23;100.00
44103;BME280;29769;42.178;24.742;2024-02-23T03:10:28;99537.94;;;2.29;100.00
44103;BME280;29769;42.178;24.742;2024-02-23T03:13:13;99535.22;;;2.21;100.00
44103;BME280;29769;42.178;24.742;2024-02-23T03:15:58;99536.00;;;2.16;100.00
44103;BME280;29769;42.178;24.742;2024-02-23T03:18:44;99546.41;;;2.17;100.00
44103;BME280;29769;42.178;24.742;2024-02-23T03:21:30;99547.22;;;2.13;100.00
44103;BME280;29769;42.178;24.742;2024-02-23T03:24:15;99544.63;;;2.15;100.00
44103;BME280;29769;42.178;24.742;2024-02-23T03:27:00;99548.78;;;2.05;100.00
44103;BME280;29769;42.178;24.742;2024-02-23T03:29:45;99548.56;;;1.90;100.00
44103;BME280;29769;42.178;24.742;2024-02-23T03:32:31;99545.97;;;1.92;100.00
44103;BME280;29769;42.178;24.742;2024-02-23T03:35:20;99551.06;;;1.86;100.00
44103;BME280;29769;42.178;24.742;2024-02-23T03:38:05;99548.47;;;1.86;100.00
44103;BME280;29769;42.178;24.742;2024-02-23T03:40:50;99544.19;;;1.86;100.00
44103;BME280;29769;42.178;24.742;2024-02-23T03:43:35;99524.78;;;1.66;100.00
44103;BME280;29769;42.178;24.742;2024-02-23T03:46:23;99551.91;;;1.85;100.00
44103;BME280;29769;42.178;24.742;2024-02-23T03:49:08;99546.84;;;1.92;100.00
44103;BME280;29769;42.178;24.742;2024-02-23T03:51:53;99531.88;;;1.76;100.00
44103;BME280;29769;42.178;24.742;2024-02-23T03:54:38;99545.41;;;1.58;100.00
44103;BME280;29769;42.178;24.742;2024-02-23T03:57:23;99530.59;;;1.53;100.00
44103;BME280;29769;42.178;24.742;2024-02-23T04:00:08;99535.28;;;1.72;100.00
44103;BME280;29769;42.178;24.742;2024-02-23T04:03:00;99543.59;;;1.54;100.00
44103;BME280;29769;42.178;24.742;2024-02-23T04:05:45;99535.19;;;1.67;100.00
44103;BME280;29769;42.178;24.742;2024-02-23T04:08:30;99529.59;;;1.45;100.00
44103;BME280;29769;42.178;24.742;2024-02-23T04:11:15;99531.31;;;1.44;100.00
44103;BME280;29769;42.178;24.742;2024-02-23T04:14:00;99548.63;;;1.45;100.00
44103;BME280;29769;42.178;24.742;2024-02-23T04:16:45;99537.31;;;1.42;100.00
44103;BME280;29769;42.178;24.742;2024-02-23T04:19:30;99523.28;;;1.32;100.00
44103;BME280;29769;42.178;24.742;2024-02-23T04:22:15;99545.25;;;1.49;100.00
44103;BME280;29769;42.178;24.742;2024-02-23T04:25:00;99534.88;;;1.49;100.00
44103;BME280;29769;42.178;24.742;2024-02-23T04:27:46;99554.81;;;1.53;100.00
44103;BME280;29769;42.178;24.742;2024-02-23T04:30:31;99546.84;;;1.43;100.00
44103;BME280;29769;42.178;24.742;2024-02-23T04:33:16;99546.63;;;1.32;100.00
44103;BME280;29769;42.178;24.742;2024-02-23T04:36:01;99542.31;;;1.31;100.00
44103;BME280;29769;42.178;24.742;2024-02-23T04:38:45;99551.72;;;1.26;100.00
44103;BME280;29769;42.178;24.742;2024-02-23T04:41:30;99553.50;;;1.30;100.00
44103;BME280;29769;42.178;24.742;2024-02-23T04:44:15;99555.13;;;1.25;100.00
44103;BME280;29769;42.178;24.742;2024-02-23T04:47:01;99549.25;;;1.33;100.00
44103;BME280;29769;42.178;24.742;2024-02-23T04:49:47;99554.38;;;1.32;100.00
44103;BME280;29769;42.178;24.742;2024-02-23T04:52:32;99554.34;;;1.29;100.00
44103;BME280;29769;42.178;24.742;2024-02-23T04:55:17;99545.81;;;1.34;100.00
44103;BME280;29769;42.178;24.742;2024-02-23T04:58:02;99547.63;;;1.39;100.00
44103;BME280;29769;42.178;24.742;2024-02-23T05:00:46;99551.88;;;1.37;100.00
44103;BME280;29769;42.178;24.742;2024-02-23T05:03:31;99543.94;;;1.27;100.00
44103;BME280;29769;42.178;24.742;2024-02-23T05:06:16;99548.25;;;1.25;100.00
44103;BME280;29769;42.178;24.742;2024-02-23T05:09:02;99548.09;;;1.18;100.00
44103;BME280;29769;42.178;24.742;2024-02-23T05:11:47;99556.75;;;1.20;100.00
44103;BME280;29769;42.178;24.742;2024-02-23T05:14:32;99561.19;;;1.25;100.00
44103;BME280;29769;42.178;24.742;2024-02-23T05:17:17;99570.78;;;1.29;100.00
44103;BME280;29769;42.178;24.742;2024-02-23T05:20:03;99566.41;;;1.28;100.00
44103;BME280;29769;42.178;24.742;2024-02-23T05:22:52;99564.09;;;1.41;100.00
44103;BME280;29769;42.178;24.742;2024-02-23T05:25:37;99576.56;;;1.61;100.00
44103;BME280;29769;42.178;24.742;2024-02-23T05:28:22;99581.16;;;1.76;100.00
44103;BME280;29769;42.178;24.742;2024-02-23T05:31:09;99572.53;;;1.78;100.00
44103;BME280;29769;42.178;24.742;2024-02-23T05:33:54;99573.97;;;2.11;100.00
44103;BME280;29769;42.178;24.742;2024-02-23T05:36:39;99573.56;;;2.39;100.00
44103;BME280;29769;42.178;24.742;2024-02-23T05:39:24;99581.50;;;2.48;100.00
44103;BME280;29769;42.178;24.742;2024-02-23T05:42:09;99582.47;;;2.56;100.00
44103;BME280;29769;42.178;24.742;2024-02-23T05:44:54;99582.19;;;3.00;100.00
44103;BME280;29769;42.178;24.742;2024-02-23T05:47:39;99585.66;;;2.97;100.00
44103;BME280;29769;42.178;24.742;2024-02-23T05:50:24;99589.25;;;3.07;100.00
44103;BME280;29769;42.178;24.742;2024-02-23T05:53:09;99592.94;;;3.26;100.00
44103;BME280;29769;42.178;24.742;2024-02-23T05:55:53;99581.81;;;3.36;100.00
44103;BME280;29769;42.178;24.742;2024-02-23T05:58:38;99601.00;;;3.47;100.00
44103;BME280;29769;42.178;24.742;2024-02-23T06:01:24;99598.56;;;3.64;100.00
44103;BME280;29769;42.178;24.742;2024-02-23T06:04:08;99604.38;;;4.24;100.00
44103;BME280;29769;42.178;24.742;2024-02-23T06:06:53;99608.75;;;4.27;100.00
44103;BME280;29769;42.178;24.742;2024-02-23T06:09:38;99618.56;;;4.60;100.00
44103;BME280;29769;42.178;24.742;2024-02-23T06:12:26;99624.00;;;4.90;100.00
44103;BME280;29769;42.178;24.742;2024-02-23T06:15:11;99596.31;;;5.19;100.00
44103;BME280;29769;42.178;24.742;2024-02-23T06:17:56;99626.09;;;5.62;100.00
44103;BME280;29769;42.178;24.742;2024-02-23T06:20:41;99627.06;;;5.96;100.00
44103;BME280;29769;42.178;24.742;2024-02-23T06:23:26;99634.06;;;6.18;100.00
44103;BME280;29769;42.178;24.742;2024-02-23T06:26:11;99635.78;;;6.09;100.00
44103;BME280;29769;42.178;24.742;2024-02-23T06:28:56;99618.41;;;6.85;100.00
44103;BME280;29769;42.178;24.742;2024-02-23T06:31:41;99580.78;;;7.26;100.00
44103;BME280;29769;42.178;24.742;2024-02-23T06:34:27;99634.78;;;7.48;100.00
44103;BME280;29769;42.178;24.742;2024-02-23T06:37:12;99638.94;;;7.93;100.00
44103;BME280;29769;42.178;24.742;2024-02-23T06:39:58;99635.28;;;8.18;100.00
44103;BME280;29769;42.178;24.742;2024-02-23T06:42:43;99612.38;;;8.46;100.00
44103;BME280;29769;42.178;24.742;2024-02-23T06:45:28;99616.47;;;8.80;100.00
44103;BME280;29769;42.178;24.742;2024-02-23T06:48:13;99611.47;;;8.52;100.00
44103;BME280;29769;42.178;24.742;2024-02-23T06:50:58;99627.06;;;8.70;100.00
44103;BME280;29769;42.178;24.742;2024-02-23T06:53:43;99632.19;;;8.82;100.00
44103;BME280;29769;42.178;24.742;2024-02-23T06:56:28;99616.47;;;8.80;100.00
44103;BME280;29769;42.178;24.742;2024-02-23T06:59:12;99600.59;;;8.92;100.00
44103;BME280;29769;42.178;24.742;2024-02-23T07:01:57;99626.34;;;9.36;100.00
44103;BME280;29769;42.178;24.742;2024-02-23T07:04:42;99622.09;;;9.97;100.00
44103;BME280;29769;42.178;24.742;2024-02-23T07:07:27;99622.41;;;10.89;94.09
44103;BME280;29769;42.178;24.742;2024-02-23T07:10:12;99620.84;;;10.79;90.62
44103;BME280;29769;42.178;24.742;2024-02-23T07:12:57;99625.53;;;10.61;93.36
44103;BME280;29769;42.178;24.742;2024-02-23T07:15:42;99628.59;;;11.35;89.95
44103;BME280;29769;42.178;24.742;2024-02-23T07:18:27;99614.34;;;11.44;86.32
44103;BME280;29769;42.178;24.742;2024-02-23T07:21:13;99627.47;;;11.45;87.09
44103;BME280;29769;42.178;24.742;2024-02-23T07:23:58;99600.97;;;11.96;84.02
44103;BME280;29769;42.178;24.742;2024-02-23T07:26:43;99592.16;;;12.71;78.80
44103;BME280;29769;42.178;24.742;2024-02-23T07:29:27;99605.63;;;13.26;74.56
44103;BME280;29769;42.178;24.742;2024-02-23T07:32:12;99601.38;;;13.53;74.20
44103;BME280;29769;42.178;24.742;2024-02-23T07:34:57;99611.56;;;13.95;70.11
44103;BME280;29769;42.178;24.742;2024-02-23T07:37:42;99602.53;;;14.85;66.57
44103;BME280;29769;42.178;24.742;2024-02-23T07:40:27;99594.81;;;15.53;64.55
44103;BME280;29769;42.178;24.742;2024-02-23T07:43:12;99595.28;;;15.88;60.25
44103;BME280;29769;42.178;24.742;2024-02-23T07:45:57;99597.63;;;15.95;60.57
44103;BME280;29769;42.178;24.742;2024-02-23T07:48:42;99579.50;;;16.50;57.45
44103;BME280;29769;42.178;24.742;2024-02-23T07:51:27;99571.16;;;15.94;59.42
44103;BME280;29769;42.178;24.742;2024-02-23T07:54:12;99581.84;;;16.14;59.06
44103;BME280;29769;42.178;24.742;2024-02-23T07:56:57;99575.56;;;16.60;56.43
44103;BME280;29769;42.178;24.742;2024-02-23T07:59:42;99573.06;;;17.18;53.73
44103;BME280;29769;42.178;24.742;2024-02-23T08:02:27;99573.31;;;17.52;52.68
44103;BME280;29769;42.178;24.742;2024-02-23T08:05:11;99573.59;;;17.46;51.86
44103;BME280;29769;42.178;24.742;2024-02-23T08:07:56;99581.59;;;18.40;49.59
44103;BME280;29769;42.178;24.742;2024-02-23T08:10:41;99561.00;;;19.14;46.36
44103;BME280;29769;42.178;24.742;2024-02-23T08:13:26;99583.38;;;18.94;45.58
44103;BME280;29769;42.178;24.742;2024-02-23T08:16:12;99575.91;;;18.83;45.59
44103;BME280;29769;42.178;24.742;2024-02-23T08:18:57;99576.53;;;19.05;45.11
44103;BME280;29769;42.178;24.742;2024-02-23T08:21:42;99576.53;;;19.05;44.92
44103;BME280;29769;42.178;24.742;2024-02-23T08:24:28;99574.41;;;20.11;42.78
44103;BME280;29769;42.178;24.742;2024-02-23T08:27:13;99566.06;;;20.78;41.46
44103;BME280;29769;42.178;24.742;2024-02-23T08:29:58;99560.38;;;20.07;41.56
44103;BME280;29769;42.178;24.742;2024-02-23T08:32:43;99557.88;;;21.11;40.32
44103;BME280;29769;42.178;24.742;2024-02-23T08:35:28;99550.75;;;22.64;37.05
44103;BME280;29769;42.178;24.742;2024-02-23T08:38:14;99540.34;;;24.00;34.59
44103;BME280;29769;42.178;24.742;2024-02-23T08:40:58;99535.53;;;24.76;32.33
44103;BME280;29769;42.178;24.742;2024-02-23T08:43:44;99537.94;;;25.49;31.87
44103;BME280;29769;42.178;24.742;2024-02-23T08:46:29;99543.50;;;25.70;30.89
44103;BME280;29769;42.178;24.742;2024-02-23T08:49:14;99538.06;;;25.48;30.40
44103;BME280;29769;42.178;24.742;2024-02-23T08:51:59;99537.50;;;25.78;30.22
44103;BME280;29769;42.178;24.742;2024-02-23T08:54:44;99525.97;;;27.67;27.86
44103;BME280;29769;42.178;24.742;2024-02-23T08:57:29;99533.66;;;27.71;27.54
44103;BME280;29769;42.178;24.742;2024-02-23T09:00:14;99541.22;;;27.47;27.23
44103;BME280;29769;42.178;24.742;2024-02-23T09:02:59;99535.34;;;27.63;27.00
44103;BME280;29769;42.178;24.742;2024-02-23T09:05:44;99534.75;;;27.90;27.18
44103;BME280;29769;42.178;24.742;2024-02-23T09:08:31;99532.22;;;27.67;26.84
44103;BME280;29769;42.178;24.742;2024-02-23T09:11:16;99524.84;;;28.09;25.86
44103;BME280;29769;42.178;24.742;2024-02-23T09:14:03;99523.97;;;28.58;25.43
44103;BME280;29769;42.178;24.742;2024-02-23T09:16:48;99510.47;;;29.06;24.82
44103;BME280;29769;42.178;24.742;2024-02-23T09:19:35;99521.22;;;29.82;24.51
44103;BME280;29769;42.178;24.742;2024-02-23T09:22:21;99510.72;;;29.13;24.76
44103;BME280;29769;42.178;24.742;2024-02-23T09:25:07;99518.38;;;30.20;23.89
44103;BME280;29769;42.178;24.742;2024-02-23T09:27:56;99495.53;;;31.37;22.99
44103;BME280;29769;42.178;24.742;2024-02-23T09:30:41;99500.03;;;30.85;22.85
44103;BME280;29769;42.178;24.742;2024-02-23T09:33:26;99511.22;;;31.69;22.09
44103;BME280;29769;42.178;24.742;2024-02-23T09:36:11;99488.78;;;31.49;22.00
44103;BME280;29769;42.178;24.742;2024-02-23T09:38:56;99492.09;;;32.29;21.73
44103;BME280;29769;42.178;24.742;2024-02-23T09:41:42;99485.03;;;33.17;21.09
44103;BME280;29769;42.178;24.742;2024-02-23T09:44:32;99484.69;;;33.03;20.26
44103;BME280;29769;42.178;24.742;2024-02-23T09:47:20;99473.63;;;33.05;20.87
44103;BME280;29769;42.178;24.742;2024-02-23T09:50:06;99481.44;;;33.32;20.57
44103;BME280;29769;42.178;24.742;2024-02-23T09:52:53;99472.94;;;33.90;19.75
44103;BME280;29769;42.178;24.742;2024-02-23T09:55:42;99474.31;;;33.23;20.37
44103;BME280;29769;42.178;24.742;2024-02-23T09:58:29;99465.63;;;33.20;20.43
44103;BME280;29769;42.178;24.742;2024-02-23T10:01:24;99466.81;;;33.80;19.82
44103;BME280;29769;42.178;24.742;2024-02-23T10:04:11;99456.75;;;33.81;20.06
44103;BME280;29769;42.178;24.742;2024-02-23T10:06:56;99459.19;;;31.72;21.28
44103;BME280;29769;42.178;24.742;2024-02-23T10:09:41;99447.22;;;31.91;21.27
44103;BME280;29769;42.178;24.742;2024-02-23T10:12:26;99452.50;;;32.91;21.13
44103;BME280;29769;42.178;24.742;2024-02-23T10:15:11;99445.72;;;32.71;20.53
44103;BME280;29769;42.178;24.742;2024-02-23T10:17:56;99442.72;;;33.45;20.65
44103;BME280;29769;42.178;24.742;2024-02-23T10:20:41;99438.97;;;30.89;22.54
44103;BME280;29769;42.178;24.742;2024-02-23T10:23:26;99429.38;;;30.41;23.05
44103;BME280;29769;42.178;24.742;2024-02-23T10:26:11;99428.38;;;30.25;23.47
44103;BME280;29769;42.178;24.742;2024-02-23T10:28:56;99430.56;;;31.26;22.74
44103;BME280;29769;42.178;24.742;2024-02-23T10:31:44;99421.88;;;30.97;22.29
44103;BME280;29769;42.178;24.742;2024-02-23T10:34:34;99424.56;;;31.14;22.09
44103;BME280;29769;42.178;24.742;2024-02-23T10:37:22;99421.34;;;31.87;21.99
44103;BME280;29769;42.178;24.742;2024-02-23T10:40:08;99410.28;;;30.69;22.37
44103;BME280;29769;42.178;24.742;2024-02-23T10:42:56;99411.84;;;30.18;23.08
44103;BME280;29769;42.178;24.742;2024-02-23T10:45:44;99400.06;;;31.66;22.62
44103;BME280;29769;42.178;24.742;2024-02-23T10:48:29;99403.44;;;31.68;21.51
44103;BME280;29769;42.178;24.742;2024-02-23T10:51:14;99397.88;;;32.52;21.04
44103;BME280;29769;42.178;24.742;2024-02-23T10:54:00;99388.56;;;30.69;22.61
44103;BME280;29769;42.178;24.742;2024-02-23T10:56:47;99391.53;;;30.22;23.01
44103;BME280;29769;42.178;24.742;2024-02-23T10:59:32;99391.22;;;31.04;22.28
44103;BME280;29769;42.178;24.742;2024-02-23T11:02:19;99386.97;;;32.60;20.44
44103;BME280;29769;42.178;24.742;2024-02-23T11:05:06;99372.47;;;32.11;20.71
44103;BME280;29769;42.178;24.742;2024-02-23T11:07:56;99377.50;;;29.91;23.58
44103;BME280;29769;42.178;24.742;2024-02-23T11:10:51;99362.03;;;31.98;22.02
44103;BME280;29769;42.178;24.742;2024-02-23T11:13:40;99357.19;;;32.75;20.55
44103;BME280;29769;42.178;24.742;2024-02-23T11:16:25;99362.91;;;33.20;20.40
44103;BME280;29769;42.178;24.742;2024-02-23T11:19:10;99363.78;;;34.13;19.71
44103;BME280;29769;42.178;24.742;2024-02-23T11:21:58;99354.88;;;35.02;18.75
44103;BME280;29769;42.178;24.742;2024-02-23T11:24:44;99350.09;;;34.44;19.02
44103;BME280;29769;42.178;24.742;2024-02-23T11:27:33;99342.63;;;33.62;19.04
44103;BME280;29769;42.178;24.742;2024-02-23T11:30:18;99343.72;;;34.06;19.10
44103;BME280;29769;42.178;24.742;2024-02-23T11:33:07;99348.78;;;35.30;17.86
44103;BME280;29769;42.178;24.742;2024-02-23T11:35:52;99350.81;;;32.98;19.52
44103;BME280;29769;42.178;24.742;2024-02-23T11:38:39;99343.16;;;33.02;19.28
44103;BME280;29769;42.178;24.742;2024-02-23T11:41:24;99338.41;;;31.99;19.73
44103;BME280;29769;42.178;24.742;2024-02-23T11:44:10;99344.00;;;33.19;19.21
44103;BME280;29769;42.178;24.742;2024-02-23T11:46:55;99337.56;;;31.98;20.53
44103;BME280;29769;42.178;24.742;2024-02-23T11:49:40;99333.06;;;31.23;20.90
44103;BME280;29769;42.178;24.742;2024-02-23T11:52:25;99337.88;;;31.37;21.08
44103;BME280;29769;42.178;24.742;2024-02-23T11:55:10;99340.91;;;31.00;21.54
44103;BME280;29769;42.178;24.742;2024-02-23T11:57:55;99330.97;;;32.41;20.59
44103;BME280;29769;42.178;24.742;2024-02-23T12:00:40;99323.25;;;33.01;20.02
44103;BME280;29769;42.178;24.742;2024-02-23T12:03:26;99312.84;;;34.06;19.26
44103;BME280;29769;42.178;24.742;2024-02-23T12:06:11;99315.94;;;34.25;19.50
44103;BME280;29769;42.178;24.742;2024-02-23T12:08:56;99310.84;;;34.83;18.72
44103;BME280;29769;42.178;24.742;2024-02-23T12:11:41;99310.38;;;35.38;18.10
44103;BME280;29769;42.178;24.742;2024-02-23T12:14:26;99310.88;;;32.67;19.97
44103;BME280;29769;42.178;24.742;2024-02-23T12:17:11;99301.38;;;31.98;20.70
44103;BME280;29769;42.178;24.742;2024-02-23T12:20:00;99303.53;;;31.70;21.17
44103;BME280;29769;42.178;24.742;2024-02-23T12:22:45;99294.53;;;32.83;20.20
44103;BME280;29769;42.178;24.742;2024-02-23T12:25:31;99291.31;;;32.79;20.27
44103;BME280;29769;42.178;24.742;2024-02-23T12:28:18;99277.50;;;33.59;19.29
44103;BME280;29769;42.178;24.742;2024-02-23T12:31:04;99285.31;;;33.92;19.13
44103;BME280;29769;42.178;24.742;2024-02-23T12:33:50;99284.53;;;34.96;18.27
44103;BME280;29769;42.178;24.742;2024-02-23T12:36:36;99277.66;;;34.11;18.65
44103;BME280;29769;42.178;24.742;2024-02-23T12:39:21;99281.66;;;33.46;18.75
44103;BME280;29769;42.178;24.742;2024-02-23T12:42:06;99274.28;;;33.24;19.26
44103;BME280;29769;42.178;24.742;2024-02-23T12:44:51;99275.09;;;32.86;19.62
44103;BME280;29769;42.178;24.742;2024-02-23T12:47:36;99273.25;;;31.65;20.07
44103;BME280;29769;42.178;24.742;2024-02-23T12:50:21;99269.97;;;30.69;21.26
44103;BME280;29769;42.178;24.742;2024-02-23T12:53:06;99267.09;;;30.71;21.37
44103;BME280;29769;42.178;24.742;2024-02-23T12:55:51;99262.63;;;30.44;21.43
44103;BME280;29769;42.178;24.742;2024-02-23T12:58:37;99257.34;;;30.17;21.74
44103;BME280;29769;42.178;24.742;2024-02-23T13:01:22;99251.22;;;31.26;21.24
44103;BME280;29769;42.178;24.742;2024-02-23T13:04:07;99239.97;;;31.79;20.69
44103;BME280;29769;42.178;24.742;2024-02-23T13:06:54;99249.47;;;33.03;19.88
44103;BME280;29769;42.178;24.742;2024-02-23T13:09:39;99239.59;;;33.72;18.93
44103;BME280;29769;42.178;24.742;2024-02-23T13:12:24;99246.38;;;33.76;18.81
44103;BME280;29769;42.178;24.742;2024-02-23T13:15:09;99244.31;;;34.01;18.83
44103;BME280;29769;42.178;24.742;2024-02-23T13:17:54;99242.13;;;32.64;19.49
44103;BME280;29769;42.178;24.742;2024-02-23T13:20:39;99242.03;;;30.08;22.01
44103;BME280;29769;42.178;24.742;2024-02-23T13:23:26;99234.19;;;30.74;21.55
44103;BME280;29769;42.178;24.742;2024-02-23T13:26:11;99231.66;;;31.22;20.75
44103;BME280;29769;42.178;24.742;2024-02-23T13:28:59;99228.72;;;29.96;22.25
44103;BME280;29769;42.178;24.742;2024-02-23T13:31:44;99233.19;;;30.75;22.04
44103;BME280;29769;42.178;24.742;2024-02-23T13:34:29;99233.22;;;30.91;21.81
44103;BME280;29769;42.178;24.742;2024-02-23T13:37:14;99231.31;;;31.84;21.01
44103;BME280;29769;42.178;24.742;2024-02-23T13:39:59;99235.38;;;31.88;20.63
44103;BME280;29769;42.178;24.742;2024-02-23T13:42:44;99232.66;;;32.28;20.36
44103;BME280;29769;42.178;24.742;2024-02-23T13:45:51;99223.69;;;32.11;20.38
44103;BME280;29769;42.178;24.742;2024-02-23T13:48:36;99217.03;;;31.98;20.63
44103;BME280;29769;42.178;24.742;2024-02-23T13:51:21;99224.50;;;31.96;20.33
44103;BME280;29769;42.178;24.742;2024-02-23T13:54:06;99224.84;;;32.17;20.15
44103;BME280;29769;42.178;24.742;2024-02-23T13:56:51;99220.53;;;31.00;20.95
44103;BME280;29769;42.178;24.742;2024-02-23T13:59:36;99214.06;;;30.92;21.33
44103;BME280;29769;42.178;24.742;2024-02-23T14:02:26;99225.50;;;30.70;21.23
44103;BME280;29769;42.178;24.742;2024-02-23T14:05:14;99218.47;;;30.08;22.30
44103;BME280;29769;42.178;24.742;2024-02-23T14:07:59;99217.34;;;29.93;22.02
44103;BME280;29769;42.178;24.742;2024-02-23T14:10:44;99205.81;;;29.38;22.61
44103;BME280;29769;42.178;24.742;2024-02-23T14:13:29;99213.31;;;29.79;22.57
44103;BME280;29769;42.178;24.742;2024-02-23T14:16:14;99219.81;;;29.86;22.43
44103;BME280;29769;42.178;24.742;2024-02-23T14:19:00;99222.97;;;28.37;23.92
44103;BME280;29769;42.178;24.742;2024-02-23T14:21:45;99215.72;;;28.65;23.52
44103;BME280;29769;42.178;24.742;2024-02-23T14:24:30;99198.06;;;28.98;23.56